Time;durP1;ratioP1;P1;durP2;ratioP2;P2;SDS_P1;SDS_P2;PMS_P1;PMS_P2;Temp;Humidity;BMP_temperature;BMP_pressure;BME280_temperature;BME280_humidity;BME280_pressure;Samples;Min_cycle;Max_cycle;Signal;HPM_P1;HPM_P2
2021/12/27 00:01:32;;;;;;;72.30;26.13;;;-12.70;99.90;;;;;;5073129;28;20432;-80
2021/12/27 00:04:01;;;;;;;56.67;20.63;;;-12.50;99.90;;;;;;5072558;28;20584;-80
2021/12/27 00:06:28;;;;;;;61.00;23.07;;;-12.30;99.90;;;;;;5072832;28;20191;-80
2021/12/27 00:08:55;;;;;;;55.43;22.87;;;-12.10;99.90;;;;;;5072835;28;20228;-80
2021/12/27 00:11:22;;;;;;;46.03;19.67;;;-11.90;99.90;;;;;;5072262;28;21026;-80
2021/12/27 00:13:49;;;;;;;49.77;17.10;;;-11.70;99.90;;;;;;5072620;28;20277;-80
2021/12/27 00:16:17;;;;;;;73.07;28.70;;;-11.50;99.90;;;;;;5072349;28;20215;-80
2021/12/27 00:18:44;;;;;;;67.80;27.30;;;-11.30;99.90;;;;;;5072267;28;20196;-80
2021/12/27 00:21:12;;;;;;;56.50;22.17;;;-11.20;99.90;;;;;;5072527;28;20324;-80
2021/12/27 00:23:40;;;;;;;54.27;21.40;;;-11.10;99.90;;;;;;5072466;28;20718;-80
2021/12/27 00:26:07;;;;;;;56.50;19.87;;;-11.00;99.90;;;;;;5072256;28;20568;-80
2021/12/27 00:28:34;;;;;;;44.07;17.90;;;-10.90;99.90;;;;;;5072519;28;20196;-80
2021/12/27 00:31:02;;;;;;;51.13;21.40;;;-10.80;99.90;;;;;;5067100;28;20211;-80
2021/12/27 00:33:29;;;;;;;57.40;22.83;;;-10.60;99.90;;;;;;5072210;28;20237;-80
2021/12/27 00:35:56;;;;;;;48.00;17.97;;;-10.50;99.90;;;;;;5072058;28;20648;-80
2021/12/27 00:38:24;;;;;;;65.80;23.70;;;-10.40;99.90;;;;;;5072581;28;20188;-80
2021/12/27 00:40:51;;;;;;;53.03;22.27;;;-10.30;99.90;;;;;;5076352;28;20199;-80
2021/12/27 00:43:19;;;;;;;63.50;24.87;;;-10.30;99.90;;;;;;5076508;28;20241;-80
2021/12/27 00:45:46;;;;;;;40.67;18.67;;;-10.20;99.90;;;;;;5075698;28;20194;-80
2021/12/27 00:48:15;;;;;;;47.20;17.20;;;-10.20;99.90;;;;;;5076784;28;20196;-80
2021/12/27 00:50:42;;;;;;;49.93;18.17;;;-10.30;99.90;;;;;;5076576;28;20203;-80
2021/12/27 00:53:09;;;;;;;48.73;19.57;;;-10.40;99.90;;;;;;5076053;28;20191;-80
2021/12/27 00:55:38;;;;;;;35.97;14.73;;;-10.60;99.90;;;;;;5076172;28;20192;-80
2021/12/27 00:58:05;;;;;;;35.60;14.67;;;-10.80;99.90;;;;;;5076323;28;20200;-80
2021/12/27 01:00:32;;;;;;;64.57;25.70;;;-10.90;99.90;;;;;;5061665;28;20231;-80
2021/12/27 01:02:59;;;;;;;59.00;25.67;;;-11.10;99.90;;;;;;5056273;28;20200;-79
2021/12/27 01:05:27;;;;;;;47.63;19.63;;;-11.20;99.90;;;;;;5056201;28;20242;-80
2021/12/27 01:07:54;;;;;;;54.50;19.80;;;-11.20;99.90;;;;;;5055631;28;20215;-80
2021/12/27 01:10:56;;;;;;;61.90;23.13;;;-11.20;99.90;;;;;;5056033;28;20235;-80
2021/12/27 01:13:37;;;;;;;61.73;23.63;;;-11.20;99.90;;;;;;5056250;28;20263;-80
2021/12/27 01:16:11;;;;;;;70.00;27.60;;;-11.10;99.90;;;;;;5055856;28;20282;-80
2021/12/27 01:18:42;;;;;;;61.00;25.17;;;-11.10;99.90;;;;;;5055937;28;20187;-80
2021/12/27 01:21:10;;;;;;;54.07;20.13;;;-11.10;99.90;;;;;;5055835;28;20239;-80
2021/12/27 01:23:37;;;;;;;36.90;16.77;;;-11.10;99.90;;;;;;5055669;28;20253;-79
2021/12/27 01:26:04;;;;;;;51.03;19.63;;;-11.10;99.90;;;;;;5055731;28;20250;-80
2021/12/27 01:28:33;;;;;;;51.23;18.60;;;-11.10;99.90;;;;;;5055382;28;20598;-80
2021/12/27 01:31:00;;;;;;;52.47;19.67;;;-11.10;99.90;;;;;;5072458;28;20241;-80
2021/12/27 01:33:28;;;;;;;50.43;18.40;;;-11.10;99.90;;;;;;5075229;28;20249;-80
2021/12/27 01:35:55;;;;;;;44.67;17.27;;;-11.00;99.90;;;;;;5075598;28;20288;-80
2021/12/27 01:38:23;;;;;;;49.93;18.40;;;-10.90;99.90;;;;;;5074772;28;20718;-80
2021/12/27 01:40:52;;;;;;;45.73;17.03;;;-10.80;99.90;;;;;;5075395;28;20196;-81
2021/12/27 01:43:24;;;;;;;48.60;18.30;;;-10.70;99.90;;;;;;5075405;28;20249;-80
2021/12/27 01:45:54;;;;;;;46.90;16.47;;;-10.70;99.90;;;;;;5075364;28;20230;-80
2021/12/27 01:48:25;;;;;;;54.73;19.43;;;-10.60;99.90;;;;;;5075448;28;20595;-80
2021/12/27 01:50:54;;;;;;;49.30;18.03;;;-10.50;99.90;;;;;;5074962;28;20187;-80
2021/12/27 01:53:23;;;;;;;58.07;20.30;;;-10.50;99.90;;;;;;5075224;28;20212;-80
2021/12/27 01:55:52;;;;;;;52.33;19.07;;;-10.40;99.90;;;;;;5074827;28;20249;-80
2021/12/27 01:58:20;;;;;;;44.87;18.93;;;-10.40;99.90;;;;;;5075061;28;20671;-79
2021/12/27 02:00:50;;;;;;;37.23;15.70;;;-10.30;99.90;;;;;;5073220;28;20249;-80
2021/12/27 02:03:20;;;;;;;41.83;15.17;;;-10.30;99.90;;;;;;5075490;28;20196;-80
2021/12/27 02:05:47;;;;;;;52.77;21.33;;;-10.30;99.90;;;;;;5075007;28;20629;-80
2021/12/27 02:08:15;;;;;;;60.10;25.37;;;-10.20;99.90;;;;;;5074947;28;20201;-80
2021/12/27 02:10:42;;;;;;;63.23;26.50;;;-10.20;99.90;;;;;;5074591;28;20196;-80
2021/12/27 02:13:10;;;;;;;56.60;20.13;;;-10.20;99.90;;;;;;5074450;28;20676;-80
2021/12/27 02:15:38;;;;;;;66.80;27.17;;;-10.30;99.90;;;;;;5074195;28;20196;-80
2021/12/27 02:18:05;;;;;;;62.03;24.37;;;-10.30;99.90;;;;;;5075029;28;20212;-80
2021/12/27 02:20:35;;;;;;;54.33;19.60;;;-10.20;99.90;;;;;;5074414;28;20710;-80
2021/12/27 02:23:08;;;;;;;64.20;21.93;;;-10.20;99.90;;;;;;5074710;28;20179;-80
2021/12/27 02:25:36;;;;;;;51.87;21.47;;;-10.20;99.90;;;;;;5074764;28;20216;-80
2021/12/27 02:28:07;;;;;;;50.27;18.77;;;-10.20;99.90;;;;;;5074601;28;20595;-80
2021/12/27 02:30:35;;;;;;;54.43;20.30;;;-10.10;99.90;;;;;;5071335;28;20180;-80
2021/12/27 02:33:05;;;;;;;56.63;19.60;;;-10.10;99.90;;;;;;5074440;28;20270;-80
2021/12/27 02:35:37;;;;;;;60.13;23.03;;;-10.10;99.90;;;;;;5074503;28;20180;-80
2021/12/27 02:38:06;;;;;;;64.67;25.30;;;-10.10;99.90;;;;;;5074370;28;20215;-81
2021/12/27 02:40:34;;;;;;;55.93;23.00;;;-10.10;99.90;;;;;;5074003;28;20709;-80
2021/12/27 02:43:04;;;;;;;62.17;23.40;;;-10.10;99.90;;;;;;5074341;28;20196;-80
2021/12/27 02:45:34;;;;;;;53.47;21.30;;;-10.10;99.90;;;;;;5074485;28;20190;-80
2021/12/27 02:48:01;;;;;;;60.87;21.40;;;-10.10;99.90;;;;;;5074103;28;20192;-80
2021/12/27 02:50:29;;;;;;;59.77;22.30;;;-10.10;99.90;;;;;;5074217;28;20192;-80
2021/12/27 02:52:57;;;;;;;65.40;23.97;;;-10.10;99.90;;;;;;5073990;28;20224;-80
2021/12/27 02:55:25;;;;;;;69.87;26.00;;;-10.10;99.90;;;;;;5074083;28;20269;-80
2021/12/27 02:57:52;;;;;;;64.37;26.40;;;-10.10;99.90;;;;;;5073744;28;20521;-80
2021/12/27 03:00:22;;;;;;;50.80;22.27;;;-10.10;99.90;;;;;;5073788;28;20237;-80
2021/12/27 03:02:51;;;;;;;67.23;26.13;;;-10.10;99.90;;;;;;5073779;28;20258;-80
2021/12/27 03:05:20;;;;;;;45.37;15.77;;;-10.10;99.90;;;;;;5074160;28;20195;-80
2021/12/27 03:07:49;;;;;;;42.87;17.67;;;-10.20;99.90;;;;;;5074140;28;20192;-80
2021/12/27 03:10:19;;;;;;;37.20;14.30;;;-10.30;99.90;;;;;;5073803;28;20257;-80
2021/12/27 03:12:47;;;;;;;38.47;14.23;;;-10.50;99.90;;;;;;5073835;28;20224;-80
2021/12/27 03:15:16;;;;;;;41.90;18.07;;;-10.60;99.90;;;;;;5073579;28;20540;-80
2021/12/27 03:17:44;;;;;;;58.33;20.43;;;-10.60;99.90;;;;;;5073101;28;20627;-80
2021/12/27 03:20:13;;;;;;;57.83;19.80;;;-10.70;99.90;;;;;;5073557;28;20245;-80
2021/12/27 03:22:41;;;;;;;34.93;13.93;;;-10.80;99.90;;;;;;5073490;28;20203;-80
2021/12/27 03:25:09;;;;;;;55.30;20.93;;;-11.00;99.90;;;;;;5073383;28;20192;-79
2021/12/27 03:27:38;;;;;;;49.43;17.77;;;-11.20;99.90;;;;;;5073424;28;20200;-80
2021/12/27 03:30:08;;;;;;;50.67;20.53;;;-11.30;99.90;;;;;;5060559;28;20247;-79
2021/12/27 03:32:36;;;;;;;57.23;22.90;;;-11.30;99.90;;;;;;5053251;28;20216;-80
2021/12/27 03:35:09;;;;;;;47.53;16.33;;;-11.40;99.90;;;;;;5053282;28;20195;-80
2021/12/27 03:37:37;;;;;;;52.17;17.70;;;-11.40;99.90;;;;;;5053706;28;20259;-80
2021/12/27 03:40:07;;;;;;;38.57;13.40;;;-11.50;99.90;;;;;;5052855;28;20250;-80
2021/12/27 03:42:34;;;;;;;60.17;24.47;;;-11.60;99.90;;;;;;5052810;28;20193;-80
2021/12/27 03:45:04;;;;;;;47.83;18.73;;;-11.60;99.90;;;;;;5052806;28;20596;-80
2021/12/27 03:47:31;;;;;;;49.80;19.30;;;-11.70;99.90;;;;;;5053196;28;20188;-81
2021/12/27 03:49:58;;;;;;;52.97;22.30;;;-11.80;99.90;;;;;;5053070;28;20192;-80
2021/12/27 03:52:25;;;;;;;65.47;24.07;;;-12.00;99.90;;;;;;5052951;28;20278;-80
2021/12/27 03:54:52;;;;;;;55.43;22.80;;;-12.00;99.90;;;;;;5053194;28;20258;-80
2021/12/27 03:57:19;;;;;;;49.77;20.20;;;-11.80;99.90;;;;;;5053121;28;20188;-80
2021/12/27 04:00:04;;;;;;;46.63;21.13;;;-11.80;99.90;;;;;;5062242;28;20632;-80
2021/12/27 04:02:37;;;;;;;42.63;15.33;;;-11.70;99.90;;;;;;5072908;28;20233;-80
2021/12/27 04:05:05;;;;;;;42.17;16.33;;;-11.50;99.90;;;;;;5072886;28;20186;-80
2021/12/27 04:07:34;;;;;;;41.37;14.60;;;-11.30;99.90;;;;;;5072853;28;20188;-80
2021/12/27 04:10:01;;;;;;;36.03;14.97;;;-11.10;99.90;;;;;;5072801;28;20227;-80
2021/12/27 04:12:28;;;;;;;30.60;10.93;;;-11.00;99.90;;;;;;5072169;28;20281;-80
2021/12/27 04:14:55;;;;;;;29.80;11.67;;;-10.80;99.90;;;;;;5072083;28;20196;-80
2021/12/27 04:17:22;;;;;;;34.87;12.30;;;-10.50;99.90;;;;;;5072974;28;20241;-81
2021/12/27 04:19:51;;;;;;;35.70;12.43;;;-10.30;99.90;;;;;;5072972;28;20249;-80
2021/12/27 04:22:18;;;;;;;26.87;11.17;;;-10.00;99.90;;;;;;5072876;28;20195;-80
2021/12/27 04:24:45;;;;;;;33.57;13.00;;;-9.80;99.90;;;;;;5072630;28;20204;-80
2021/12/27 04:27:12;;;;;;;27.50;9.73;;;-9.70;99.90;;;;;;5072555;28;20266;-80
2021/12/27 04:29:39;;;;;;;36.67;13.87;;;-9.50;99.90;;;;;;5070962;28;20191;-80
2021/12/27 04:32:07;;;;;;;27.43;12.27;;;-9.40;99.90;;;;;;5072575;28;20246;-80
2021/12/27 04:34:34;;;;;;;28.17;11.17;;;-9.30;99.90;;;;;;5072136;28;20644;-80
2021/12/27 04:37:03;;;;;;;35.43;13.43;;;-9.30;99.90;;;;;;5071705;28;20278;-80
2021/12/27 04:39:30;;;;;;;35.40;14.07;;;-9.30;99.90;;;;;;5071847;28;20184;-80
2021/12/27 04:41:57;;;;;;;40.03;15.87;;;-9.30;99.90;;;;;;5072099;28;20195;-80
2021/12/27 04:44:24;;;;;;;41.13;17.47;;;-9.30;99.90;;;;;;5072151;28;20648;-80
2021/12/27 04:46:51;;;;;;;37.67;10.80;;;-9.30;99.90;;;;;;5072315;28;20184;-80
2021/12/27 04:49:19;;;;;;;38.07;14.70;;;-9.30;99.90;;;;;;5068538;28;20657;-80
2021/12/27 04:51:46;;;;;;;35.87;13.67;;;-9.40;99.90;;;;;;5051875;28;20197;-80
2021/12/27 04:54:14;;;;;;;33.63;12.80;;;-9.40;99.90;;;;;;5052174;28;20258;-80
2021/12/27 04:56:41;;;;;;;34.53;13.53;;;-9.30;99.90;;;;;;5051889;28;20218;-80
2021/12/27 04:59:08;;;;;;;34.37;13.23;;;-9.40;99.90;;;;;;5052318;28;20192;-80
2021/12/27 05:01:35;;;;;;;43.53;15.17;;;-9.40;99.90;;;;;;5051822;28;20601;-80
2021/12/27 05:04:02;;;;;;;38.53;13.87;;;-9.40;99.90;;;;;;5052323;28;20196;-80
2021/12/27 05:06:29;;;;;;;42.13;14.03;;;-9.40;99.90;;;;;;5051709;28;20227;-80
2021/12/27 05:08:56;;;;;;;41.03;16.47;;;-9.50;99.90;;;;;;5052183;28;20246;-80
2021/12/27 05:11:24;;;;;;;33.30;12.63;;;-9.40;99.90;;;;;;5052276;28;20243;-80
2021/12/27 05:13:52;;;;;;;39.77;15.93;;;-9.50;99.90;;;;;;5052016;28;20278;-80
2021/12/27 05:16:18;;;;;;;36.87;14.57;;;-9.60;99.90;;;;;;5051703;28;20766;-80
2021/12/27 05:18:45;;;;;;;32.07;12.90;;;-9.70;99.90;;;;;;5051680;28;20719;-80
2021/12/27 05:21:12;;;;;;;35.83;13.27;;;-9.70;99.90;;;;;;5053898;28;20188;-80
2021/12/27 05:23:39;;;;;;;30.30;11.47;;;-9.70;99.90;;;;;;5051575;28;20197;-80
2021/12/27 05:26:06;;;;;;;30.13;12.17;;;-9.70;99.90;;;;;;5055056;28;20577;-80
2021/12/27 05:28:35;;;;;;;27.30;10.77;;;-9.60;99.90;;;;;;5055763;28;20200;-80
2021/12/27 05:31:02;;;;;;;33.50;12.13;;;-9.50;99.90;;;;;;5055331;28;20196;-80
2021/12/27 05:33:29;;;;;;;36.07;13.57;;;-9.50;99.90;;;;;;5055146;28;20212;-80
2021/12/27 05:35:55;;;;;;;37.90;13.53;;;-9.40;99.90;;;;;;5055848;28;20247;-80
2021/12/27 05:38:23;;;;;;;34.10;12.73;;;-9.40;99.90;;;;;;5067988;28;20203;-80
2021/12/27 05:40:53;;;;;;;35.17;12.40;;;-9.40;99.90;;;;;;5067467;28;20203;-79
2021/12/27 05:43:20;;;;;;;34.63;14.07;;;-9.40;99.90;;;;;;5055187;28;20270;-79
2021/12/27 05:45:48;;;;;;;34.03;12.90;;;-9.30;99.90;;;;;;5055380;28;20204;-79
2021/12/27 05:48:16;;;;;;;40.27;14.23;;;-9.30;99.90;;;;;;5055305;28;20252;-79
2021/12/27 05:50:43;;;;;;;37.57;15.67;;;-9.30;99.90;;;;;;5067800;28;20675;-80
2021/12/27 05:53:10;;;;;;;45.43;14.80;;;-9.30;99.90;;;;;;5074982;28;20688;-79
2021/12/27 05:55:37;;;;;;;43.87;15.60;;;-9.40;99.90;;;;;;5075082;28;20435;-79
2021/12/27 05:58:05;;;;;;;36.23;15.47;;;-9.30;99.90;;;;;;5069961;28;20185;-79
2021/12/27 06:00:33;;;;;;;44.97;14.83;;;-9.40;99.90;;;;;;5055255;28;20188;-79
2021/12/27 06:03:01;;;;;;;44.77;15.83;;;-9.30;99.90;;;;;;5073796;28;20592;-80
2021/12/27 06:05:29;;;;;;;35.80;13.90;;;-9.40;99.90;;;;;;5075009;28;20196;-80
2021/12/27 06:07:56;;;;;;;39.37;15.63;;;-9.40;99.90;;;;;;5075350;28;20191;-79
2021/12/27 06:10:23;;;;;;;43.00;14.17;;;-9.40;99.90;;;;;;5075330;28;20238;-80
2021/12/27 06:12:50;;;;;;;47.20;17.23;;;-9.30;99.90;;;;;;5064898;28;20216;-79
2021/12/27 06:15:17;;;;;;;53.30;21.07;;;-9.30;99.90;;;;;;5054614;28;20689;-79
2021/12/27 06:17:44;;;;;;;43.03;16.87;;;-9.30;99.90;;;;;;5055180;28;20689;-79
2021/12/27 06:20:15;;;;;;;40.30;15.70;;;-9.30;99.90;;;;;;5063151;28;20188;-80
2021/12/27 06:22:45;;;;;;;49.90;17.93;;;-9.40;99.90;;;;;;5074552;28;20181;-79
2021/12/27 06:25:12;;;;;;;48.40;15.40;;;-9.40;99.90;;;;;;5074659;28;20188;-80
2021/12/27 06:27:39;;;;;;;54.97;17.20;;;-9.40;99.90;;;;;;5073577;28;20192;-79
2021/12/27 06:30:08;;;;;;;57.97;20.70;;;-9.40;99.90;;;;;;5054645;28;20249;-79
2021/12/27 06:32:36;;;;;;;50.73;19.37;;;-9.40;99.90;;;;;;5054099;28;20242;-80
2021/12/27 06:35:03;;;;;;;42.90;17.87;;;-9.40;99.90;;;;;;5054419;28;20196;-80
2021/12/27 06:37:32;;;;;;;53.40;19.93;;;-9.40;99.90;;;;;;5053336;28;20622;-79
2021/12/27 06:39:59;;;;;;;52.67;19.97;;;-9.40;99.90;;;;;;5054460;28;20192;-79
2021/12/27 06:42:26;;;;;;;50.73;19.03;;;-9.40;99.90;;;;;;5054224;28;20224;-79
2021/12/27 06:44:53;;;;;;;44.70;18.23;;;-9.50;99.90;;;;;;5053967;28;20196;-79
2021/12/27 06:47:20;;;;;;;44.70;18.33;;;-9.50;99.90;;;;;;5054436;28;20189;-80
2021/12/27 06:49:48;;;;;;;50.33;20.40;;;-9.50;99.90;;;;;;5058967;28;20242;-79
2021/12/27 06:52:15;;;;;;;55.90;20.03;;;-9.50;99.90;;;;;;5074188;28;20202;-80
2021/12/27 06:54:43;;;;;;;60.73;21.83;;;-9.50;99.90;;;;;;5073937;28;20212;-80
2021/12/27 06:57:11;;;;;;;44.17;17.47;;;-9.50;99.90;;;;;;5075258;28;20195;-80
2021/12/27 06:59:38;;;;;;;55.97;20.27;;;-9.50;99.90;;;;;;5073665;28;20196;-80
2021/12/27 07:02:05;;;;;;;55.63;20.20;;;-9.60;99.90;;;;;;5074065;28;20249;-79
2021/12/27 07:04:32;;;;;;;58.00;22.10;;;-9.50;99.90;;;;;;5073710;28;20672;-79
2021/12/27 07:07:05;;;;;;;40.20;17.60;;;-9.50;99.90;;;;;;5076207;28;20188;-79
2021/12/27 07:09:33;;;;;;;52.10;18.57;;;-9.50;99.90;;;;;;5083307;28;20259;-78
2021/12/27 07:12:02;;;;;;;52.20;19.90;;;-9.50;99.90;;;;;;5083598;28;20199;-78
2021/12/27 07:15:06;;;;;;;50.87;18.73;;;-9.40;99.90;;;;;;5092048;28;20199;-81
2021/12/27 07:20:46;;;;;;;35.93;15.63;;;-9.20;99.90;;;;;;5094604;28;20207;-79
2021/12/27 07:23:22;;;;;;;45.27;18.63;;;-9.10;99.90;;;;;;5055367;28;20199;-79
2021/12/27 07:25:49;;;;;;;47.47;18.20;;;-9.10;99.90;;;;;;5058418;28;20617;-79
2021/12/27 07:28:18;;;;;;;53.20;17.70;;;-9.10;99.90;;;;;;5065927;28;20201;-79
2021/12/27 07:30:45;;;;;;;46.57;17.23;;;-9.00;99.90;;;;;;5074261;28;20245;-81
2021/12/27 07:33:32;;;;;;;56.93;20.33;;;-9.00;99.90;;;;;;5080383;28;20238;-85
2021/12/27 07:35:59;;;;;;;40.97;16.50;;;-9.00;99.90;;;;;;5081758;28;20196;-82
2021/12/27 07:38:26;;;;;;;51.17;19.03;;;-9.00;99.90;;;;;;5072797;28;20690;-80
2021/12/27 07:40:59;;;;;;;48.93;18.93;;;-8.90;99.90;;;;;;5079700;28;20180;-80
2021/12/27 07:43:51;;;;;;;49.20;18.83;;;-8.90;99.90;;;;;;5067785;28;20200;-80
2021/12/27 07:46:38;;;;;;;44.80;17.67;;;-8.80;99.90;;;;;;5087044;28;20211;-81
2021/12/27 07:49:17;;;;;;;40.27;15.60;;;-8.70;99.90;;;;;;5079903;28;20283;-85
2021/12/27 07:51:57;;;;;;;41.57;18.30;;;-8.70;99.90;;;;;;5071270;28;20195;-86
2021/12/27 07:54:51;;;;;;;48.10;19.30;;;-8.70;99.90;;;;;;5075588;28;20211;-81
2021/12/27 07:57:52;;;;;;;39.27;16.40;;;-8.60;99.90;;;;;;5080617;28;20204;-80
2021/12/27 08:00:32;;;;;;;39.87;14.43;;;-8.50;99.90;;;;;;5040602;28;20274;-82
2021/12/27 08:03:16;;;;;;;41.00;16.13;;;-8.40;99.90;;;;;;5053921;28;20184;-82
2021/12/27 08:08:46;;;;;;;49.20;21.80;;;-8.20;99.90;;;;;;5065611;28;20223;-81
2021/12/27 08:11:14;;;;;;;36.67;14.57;;;-8.00;99.90;;;;;;5075958;28;20172;-83
2021/12/27 08:13:45;;;;;;;36.87;13.90;;;-7.90;99.90;;;;;;5069332;28;20268;-82
2021/12/27 08:16:13;;;;;;;43.53;17.50;;;-7.80;99.90;;;;;;5062310;28;20220;-79
2021/12/27 08:18:46;;;;;;;43.70;15.90;;;-7.70;99.90;;;;;;5062592;28;20196;-82
2021/12/27 08:21:16;;;;;;;41.37;17.20;;;-7.60;99.90;;;;;;5062018;28;20249;-80
2021/12/27 08:23:44;;;;;;;35.77;15.90;;;-7.50;99.90;;;;;;5065578;28;20653;-80
2021/12/27 08:26:11;;;;;;;43.77;15.23;;;-7.40;99.90;;;;;;5064166;28;20259;-81
2021/12/27 08:28:38;;;;;;;37.17;16.83;;;-7.30;99.90;;;;;;5061678;28;20196;-82
2021/12/27 08:31:05;;;;;;;39.60;18.07;;;-7.20;99.90;;;;;;5064624;28;20203;-83
2021/12/27 08:33:34;;;;;;;48.87;17.47;;;-7.10;99.90;;;;;;5078653;28;20212;-81
2021/12/27 08:36:02;;;;;;;44.10;16.13;;;-7.00;99.90;;;;;;5085156;28;20203;-84
2021/12/27 08:38:50;;;;;;;33.87;14.63;;;-6.90;99.90;;;;;;5087464;28;20679;-84
2021/12/27 08:41:18;;;;;;;37.67;16.17;;;-6.80;99.90;;;;;;5079094;28;20191;-84
2021/12/27 08:43:45;;;;;;;30.10;11.70;;;-6.70;99.90;;;;;;5072301;28;20204;-83
2021/12/27 08:46:15;;;;;;;48.73;18.73;;;-6.50;99.90;;;;;;5072433;28;20198;-79
2021/12/27 08:49:18;;;;;;;43.33;18.27;;;-6.40;99.90;;;;;;5081031;28;20217;-84
2021/12/27 08:51:46;;;;;;;37.30;15.87;;;-6.20;99.90;;;;;;5080638;28;20714;-84
2021/12/27 08:54:13;;;;;;;35.97;14.00;;;-6.10;99.90;;;;;;5072097;28;20243;-83
2021/12/27 08:56:41;;;;;;;30.40;12.77;;;-6.00;99.90;;;;;;5078091;28;20207;-81
2021/12/27 08:59:08;;;;;;;34.67;15.00;;;-5.80;99.90;;;;;;5083955;28;20187;-80
2021/12/27 09:01:39;;;;;;;39.90;17.23;;;-5.50;99.90;;;;;;5084467;28;20200;-80
2021/12/27 09:04:09;;;;;;;36.40;14.53;;;-5.20;99.90;;;;;;5090491;28;20549;-80
2021/12/27 09:06:38;;;;;;;42.70;18.70;;;-4.70;99.90;;;;;;5083522;28;20202;-81
2021/12/27 09:09:06;;;;;;;46.77;19.17;;;-4.30;99.90;;;;;;5077118;28;20198;-84
2021/12/27 09:11:35;;;;;;;41.63;18.40;;;-3.80;99.90;;;;;;5076505;28;20294;-87
2021/12/27 09:14:03;;;;;;;44.27;17.20;;;-3.20;99.90;;;;;;5075969;28;20216;-83
2021/12/27 09:16:30;;;;;;;40.23;18.27;;;-2.90;99.90;;;;;;5077518;28;20306;-81
2021/12/27 09:18:58;;;;;;;42.87;17.70;;;-2.60;99.90;;;;;;5082293;28;20196;-84
2021/12/27 09:21:25;;;;;;;44.13;16.83;;;-2.40;99.90;;;;;;5078333;28;20706;-82
2021/12/27 09:23:54;;;;;;;44.27;19.10;;;-2.40;99.90;;;;;;5075732;28;20208;-79
2021/12/27 09:26:21;;;;;;;45.03;20.00;;;-2.20;99.90;;;;;;5081070;28;20199;-83
2021/12/27 09:28:48;;;;;;;34.47;16.20;;;-2.10;99.90;;;;;;5077054;28;20566;-85
2021/12/27 09:31:16;;;;;;;43.23;18.90;;;-2.10;99.90;;;;;;5058088;28;20212;-80
2021/12/27 09:33:44;;;;;;;40.80;16.03;;;-2.10;99.90;;;;;;5064187;28;20222;-82
2021/12/27 09:36:11;;;;;;;46.27;18.97;;;-2.10;99.90;;;;;;5060230;28;20193;-81
2021/12/27 09:38:38;;;;;;;49.60;18.80;;;-2.10;99.90;;;;;;5055979;28;20192;-84
2021/12/27 09:41:10;;;;;;;37.77;16.37;;;-2.00;99.90;;;;;;5058066;28;20222;-82
2021/12/27 09:43:38;;;;;;;45.90;20.90;;;-1.90;99.90;;;;;;5055522;28;20231;-80
2021/12/27 09:46:07;;;;;;;37.60;16.30;;;-1.90;99.90;;;;;;5055636;28;20250;-80
2021/12/27 09:48:35;;;;;;;42.10;18.80;;;-1.90;99.90;;;;;;5057646;28;20298;-82
2021/12/27 09:51:04;;;;;;;46.70;21.13;;;-1.90;99.90;;;;;;5065186;28;20197;-82
2021/12/27 09:53:38;;;;;;;46.93;19.97;;;-2.00;99.90;;;;;;5073442;28;20223;-83
2021/12/27 09:56:12;;;;;;;48.57;19.23;;;-2.00;99.90;;;;;;5072256;28;20272;-80
2021/12/27 09:58:40;;;;;;;45.93;18.67;;;-1.80;99.90;;;;;;5078548;28;20186;-81
2021/12/27 10:01:46;;;;;;;45.20;20.30;;;-1.60;99.90;;;;;;5079439;28;20219;-83
2021/12/27 10:04:29;;;;;;;42.53;19.30;;;-1.50;99.90;;;;;;5056751;28;20269;-83
2021/12/27 10:09:54;;;;;;;47.97;22.33;;;-1.80;99.90;;;;;;5077911;28;20200;-81
2021/12/27 10:12:26;;;;;;;41.00;19.23;;;-2.10;99.90;;;;;;5083570;28;20629;-82
2021/12/27 10:18:43;;;;;;;45.83;20.00;;;-2.60;99.90;;;;;;5094055;28;20234;-82
2021/12/27 10:21:24;;;;;;;52.33;22.07;;;-2.80;99.90;;;;;;5089855;28;20224;-85
2021/12/27 10:26:49;;;;;;;47.43;20.17;;;-3.10;99.90;;;;;;5060110;28;20206;-81
2021/12/27 10:29:27;;;;;;;42.47;19.60;;;-3.20;99.90;;;;;;5082167;28;20196;-80
2021/12/27 10:32:04;;;;;;;47.20;20.43;;;-3.30;99.90;;;;;;5084884;28;20179;-81
2021/12/27 10:34:50;;;;;;;43.83;18.43;;;-3.30;99.90;;;;;;5082215;28;20188;-82
2021/12/27 10:37:20;;;;;;;50.13;20.23;;;-3.40;99.90;;;;;;5083514;28;20208;-83
2021/12/27 10:39:56;;;;;;;52.30;21.83;;;-3.50;99.90;;;;;;5082229;28;20196;-80
2021/12/27 10:42:28;;;;;;;54.93;22.23;;;-3.50;99.90;;;;;;5088254;28;20190;-82
2021/12/27 10:45:19;;;;;;;48.97;22.57;;;-3.60;99.90;;;;;;5069065;28;20184;-82
2021/12/27 10:47:48;;;;;;;51.07;22.17;;;-3.60;99.90;;;;;;5087416;28;20183;-83
2021/12/27 10:50:18;;;;;;;44.83;18.83;;;-3.60;99.90;;;;;;5089135;28;20195;-84
2021/12/27 10:52:54;;;;;;;39.27;18.43;;;-3.60;99.90;;;;;;5079782;28;20199;-84
2021/12/27 10:55:23;;;;;;;44.40;20.10;;;-3.60;99.90;;;;;;5079505;28;20237;-79
2021/12/27 10:57:55;;;;;;;51.37;21.57;;;-3.60;99.90;;;;;;5086113;28;20246;-85
2021/12/27 11:00:29;;;;;;;44.40;22.97;;;-3.60;99.90;;;;;;5028921;28;20222;-80
2021/12/27 11:03:02;;;;;;;51.67;21.73;;;-3.60;99.90;;;;;;5068720;28;20165;-81
2021/12/27 11:05:38;;;;;;;48.60;21.87;;;-3.60;99.90;;;;;;5067990;28;20223;-83
2021/12/27 11:08:17;;;;;;;48.90;20.43;;;-3.50;99.90;;;;;;5061548;28;20196;-82
2021/12/27 11:10:50;;;;;;;46.33;22.37;;;-3.50;99.90;;;;;;5057182;28;20204;-82
2021/12/27 11:13:23;;;;;;;48.67;22.50;;;-3.50;99.90;;;;;;5065465;28;20185;-83
2021/12/27 11:15:52;;;;;;;40.23;18.37;;;-3.50;99.90;;;;;;5066387;28;20181;-83
2021/12/27 11:21:23;;;;;;;50.03;20.07;;;-3.50;99.90;;;;;;5074358;28;20196;-83
2021/12/27 11:23:54;;;;;;;48.13;20.97;;;-3.50;99.90;;;;;;5057446;28;20188;-79
2021/12/27 11:26:24;;;;;;;47.53;20.70;;;-3.40;99.90;;;;;;5064724;28;20207;-84
2021/12/27 11:28:52;;;;;;;46.77;19.17;;;-3.40;99.90;;;;;;5056995;28;20258;-83
2021/12/27 11:31:29;;;;;;;50.27;21.83;;;-3.30;99.90;;;;;;5070704;28;20189;-81
2021/12/27 11:33:58;;;;;;;48.53;20.43;;;-3.40;99.90;;;;;;5062628;28;20196;-84
2021/12/27 11:36:28;;;;;;;47.37;20.53;;;-3.30;99.90;;;;;;5064097;28;20219;-84
2021/12/27 11:38:56;;;;;;;54.13;22.83;;;-3.30;99.90;;;;;;5060222;28;20256;-82
2021/12/27 11:41:31;;;;;;;40.70;18.50;;;-3.30;99.90;;;;;;5057410;28;20634;-79
2021/12/27 11:44:06;;;;;;;41.63;19.63;;;-3.20;99.90;;;;;;5059329;28;20180;-83
2021/12/27 11:47:02;;;;;;;51.43;22.67;;;-3.20;99.90;;;;;;5072992;28;20255;-83
2021/12/27 11:49:47;;;;;;;45.87;19.20;;;-3.20;99.90;;;;;;5065052;28;20188;-83
2021/12/27 11:52:28;;;;;;;44.50;20.50;;;-3.40;99.90;;;;;;5067010;28;20200;-79
2021/12/27 11:55:02;;;;;;;55.67;20.83;;;-3.60;99.90;;;;;;5070245;28;20184;-83
2021/12/27 11:57:53;;;;;;;46.40;20.93;;;-3.70;99.90;;;;;;5073397;28;20192;-84
2021/12/27 12:00:40;;;;;;;46.53;21.07;;;-3.90;99.90;;;;;;5070678;28;20622;-81
2021/12/27 12:03:40;;;;;;;54.93;22.07;;;-3.90;99.90;;;;;;5096440;28;20202;-82
2021/12/27 12:06:32;;;;;;;50.67;20.67;;;-3.90;99.90;;;;;;5088274;28;20283;-83
2021/12/27 12:09:02;;;;;;;44.83;19.00;;;-3.90;99.90;;;;;;5088390;28;20183;-80
2021/12/27 12:11:39;;;;;;;47.73;19.77;;;-4.00;99.90;;;;;;5080537;28;20253;-83
2021/12/27 12:14:32;;;;;;;49.63;20.20;;;-4.00;99.90;;;;;;5074747;28;20206;-83
2021/12/27 12:17:11;;;;;;;49.17;20.83;;;-4.10;99.90;;;;;;5079677;28;20606;-79
2021/12/27 12:19:50;;;;;;;46.37;21.87;;;-4.20;99.90;;;;;;5079619;28;20186;-81
2021/12/27 12:22:37;;;;;;;47.20;20.20;;;-4.20;99.90;;;;;;5082224;28;20172;-83
2021/12/27 12:25:16;;;;;;;43.10;20.20;;;-4.30;99.90;;;;;;5080367;28;20225;-81
2021/12/27 12:28:05;;;;;;;44.03;20.73;;;-4.30;99.90;;;;;;5076595;28;20196;-84
2021/12/27 12:30:36;;;;;;;49.20;20.63;;;-4.30;99.90;;;;;;5065977;28;20224;-81
2021/12/27 12:33:06;;;;;;;46.93;20.80;;;-4.40;99.90;;;;;;5062014;28;20165;-85
2021/12/27 12:35:43;;;;;;;46.50;19.23;;;-4.40;99.90;;;;;;5058465;28;20184;-80
2021/12/27 12:38:15;;;;;;;46.00;20.83;;;-4.30;99.90;;;;;;5086359;28;20236;-83
2021/12/27 12:40:42;;;;;;;42.33;19.80;;;-4.30;99.90;;;;;;5084066;28;20201;-79
2021/12/27 12:43:37;;;;;;;52.23;23.23;;;-4.20;99.90;;;;;;5082116;28;20204;-79
2021/12/27 12:46:18;;;;;;;47.87;21.03;;;-4.20;99.90;;;;;;5073206;28;20299;-82
2021/12/27 12:49:08;;;;;;;45.00;18.97;;;-4.10;99.90;;;;;;5087048;28;20227;-83
2021/12/27 12:51:48;;;;;;;49.30;21.90;;;-4.10;99.90;;;;;;5085724;28;20251;-82
2021/12/27 12:54:39;;;;;;;47.10;19.30;;;-4.10;99.90;;;;;;5093820;28;20192;-84
2021/12/27 12:57:09;;;;;;;45.57;19.63;;;-4.00;99.90;;;;;;5082666;28;20188;-83
2021/12/27 12:59:41;;;;;;;44.83;20.73;;;-4.00;99.90;;;;;;5066973;28;20212;-82
2021/12/27 13:02:19;;;;;;;55.50;23.50;;;-4.00;99.90;;;;;;5075976;28;20228;-82